sensor_id;sensor_type;location;lat;lon;timestamp;P1;P2;P0
65360;PMS5003;51958;55.018;73.536;2023-08-07T00:00:41;2.67;1.67;0.00
65360;PMS5003;51958;55.018;73.536;2023-08-07T00:03:42;1.00;0.00;0.00
65360;PMS5003;51958;55.018;73.536;2023-08-07T00:06:43;2.00;1.00;0.00
65360;PMS5003;51958;55.018;73.536;2023-08-07T00:09:45;1.00;0.00;0.00
65360;PMS5003;51958;55.018;73.536;2023-08-07T00:12:46;2.00;2.00;0.00
65360;PMS5003;51958;55.018;73.536;2023-08-07T00:15:47;1.00;1.00;0.00
65360;PMS5003;51958;55.018;73.536;2023-08-07T00:18:48;3.00;1.00;0.00
65360;PMS5003;51958;55.018;73.536;2023-08-07T00:21:49;2.33;2.33;0.00
65360;PMS5003;51958;55.018;73.536;2023-08-07T00:24:50;2.00;2.00;0.00
65360;PMS5003;51958;55.018;73.536;2023-08-07T00:27:51;3.00;1.00;0.00
65360;PMS5003;51958;55.018;73.536;2023-08-07T00:30:53;2.00;2.00;0.00
65360;PMS5003;51958;55.018;73.536;2023-08-07T00:33:54;2.00;2.00;0.00
65360;PMS5003;51958;55.018;73.536;2023-08-07T00:36:57;3.50;3.00;0.00
65360;PMS5003;51958;55.018;73.536;2023-08-07T00:39:58;4.25;4.00;0.25
65360;PMS5003;51958;55.018;73.536;2023-08-07T00:42:59;4.00;4.00;0.00
65360;PMS5003;51958;55.018;73.536;2023-08-07T00:46:00;3.00;2.00;0.00
65360;PMS5003;51958;55.018;73.536;2023-08-07T00:49:02;4.00;3.00;0.00
65360;PMS5003;51958;55.018;73.536;2023-08-07T00:52:04;3.00;2.00;0.00
65360;PMS5003;51958;55.018;73.536;2023-08-07T00:55:05;0.33;0.33;0.00
65360;PMS5003;51958;55.018;73.536;2023-08-07T00:58:07;0.00;0.00;0.00
65360;PMS5003;51958;55.018;73.536;2023-08-07T01:01:08;1.00;1.00;0.00
65360;PMS5003;51958;55.018;73.536;2023-08-07T01:04:10;3.00;3.00;0.00
65360;PMS5003;51958;55.018;73.536;2023-08-07T01:07:11;3.00;2.00;0.00
65360;PMS5003;51958;55.018;73.536;2023-08-07T01:10:12;2.00;2.00;0.00
65360;PMS5003;51958;55.018;73.536;2023-08-07T01:13:23;1.75;1.75;0.00
65360;PMS5003;51958;55.018;73.536;2023-08-07T01:19:47;2.00;1.00;0.00
65360;PMS5003;51958;55.018;73.536;2023-08-07T01:22:48;2.00;2.00;0.00
65360;PMS5003;51958;55.018;73.536;2023-08-07T01:25:49;4.00;3.00;0.00
65360;PMS5003;51958;55.018;73.536;2023-08-07T01:32:10;2.00;1.00;0.00
65360;PMS5003;51958;55.018;73.536;2023-08-07T01:35:14;3.00;2.00;0.00
65360;PMS5003;51958;55.018;73.536;2023-08-07T01:38:15;2.00;2.00;0.00
65360;PMS5003;51958;55.018;73.536;2023-08-07T01:41:17;3.00;3.00;0.00
65360;PMS5003;51958;55.018;73.536;2023-08-07T01:44:18;4.00;4.00;0.00
65360;PMS5003;51958;55.018;73.536;2023-08-07T01:47:19;4.00;4.00;0.00
65360;PMS5003;51958;55.018;73.536;2023-08-07T01:50:20;3.00;3.00;0.00
65360;PMS5003;51958;55.018;73.536;2023-08-07T01:53:21;2.00;2.00;0.00
65360;PMS5003;51958;55.018;73.536;2023-08-07T01:56:22;3.00;3.00;1.00
65360;PMS5003;51958;55.018;73.536;2023-08-07T01:59:23;3.00;2.25;2.00
65360;PMS5003;51958;55.018;73.536;2023-08-07T02:02:24;2.00;2.00;1.00
65360;PMS5003;51958;55.018;73.536;2023-08-07T02:05:25;1.00;1.00;0.00
65360;PMS5003;51958;55.018;73.536;2023-08-07T02:08:27;1.00;1.00;0.00
65360;PMS5003;51958;55.018;73.536;2023-08-07T02:11:29;6.00;5.00;2.00
65360;PMS5003;51958;55.018;73.536;2023-08-07T02:14:30;10.00;9.75;4.25
65360;PMS5003;51958;55.018;73.536;2023-08-07T02:17:31;6.75;6.75;3.50
65360;PMS5003;51958;55.018;73.536;2023-08-07T02:20:33;3.25;3.25;3.00
65360;PMS5003;51958;55.018;73.536;2023-08-07T02:23:35;3.00;3.00;1.00
65360;PMS5003;51958;55.018;73.536;2023-08-07T02:26:36;2.00;2.00;1.00
65360;PMS5003;51958;55.018;73.536;2023-08-07T02:29:37;1.00;1.00;0.25
65360;PMS5003;51958;55.018;73.536;2023-08-07T02:32:38;2.00;1.00;0.00
65360;PMS5003;51958;55.018;73.536;2023-08-07T02:35:42;1.25;1.25;0.00
65360;PMS5003;51958;55.018;73.536;2023-08-07T02:38:55;2.00;2.00;0.00
65360;PMS5003;51958;55.018;73.536;2023-08-07T02:41:56;2.00;2.00;0.00
65360;PMS5003;51958;55.018;73.536;2023-08-07T02:44:57;2.00;2.00;0.00
65360;PMS5003;51958;55.018;73.536;2023-08-07T02:47:58;1.00;1.00;0.00
65360;PMS5003;51958;55.018;73.536;2023-08-07T02:50:59;1.00;1.00;0.00
65360;PMS5003;51958;55.018;73.536;2023-08-07T02:54:00;1.00;1.00;0.00
65360;PMS5003;51958;55.018;73.536;2023-08-07T02:57:02;1.75;1.50;0.00
65360;PMS5003;51958;55.018;73.536;2023-08-07T03:00:03;1.00;1.00;0.00
65360;PMS5003;51958;55.018;73.536;2023-08-07T03:03:05;3.00;2.75;0.00
65360;PMS5003;51958;55.018;73.536;2023-08-07T03:06:06;4.00;2.00;0.00
65360;PMS5003;51958;55.018;73.536;2023-08-07T03:09:07;2.25;1.50;0.00
65360;PMS5003;51958;55.018;73.536;2023-08-07T03:12:08;4.00;2.00;0.00
65360;PMS5003;51958;55.018;73.536;2023-08-07T03:15:18;2.00;1.00;0.00
65360;PMS5003;51958;55.018;73.536;2023-08-07T03:18:19;2.50;1.75;0.00
65360;PMS5003;51958;55.018;73.536;2023-08-07T03:21:20;3.75;1.50;0.00
65360;PMS5003;51958;55.018;73.536;2023-08-07T03:24:21;2.25;1.25;0.00
65360;PMS5003;51958;55.018;73.536;2023-08-07T03:27:23;2.33;1.00;0.00
65360;PMS5003;51958;55.018;73.536;2023-08-07T03:30:24;1.00;1.00;0.00
65360;PMS5003;51958;55.018;73.536;2023-08-07T03:33:26;1.25;1.25;0.00
65360;PMS5003;51958;55.018;73.536;2023-08-07T03:36:33;1.00;1.00;0.00
65360;PMS5003;51958;55.018;73.536;2023-08-07T03:39:34;3.25;3.25;0.00
65360;PMS5003;51958;55.018;73.536;2023-08-07T03:42:35;4.75;3.25;0.00
65360;PMS5003;51958;55.018;73.536;2023-08-07T03:45:37;2.25;2.25;0.00
65360;PMS5003;51958;55.018;73.536;2023-08-07T03:48:39;2.00;2.00;0.00
65360;PMS5003;51958;55.018;73.536;2023-08-07T03:51:41;2.00;2.00;0.00
65360;PMS5003;51958;55.018;73.536;2023-08-07T03:54:43;4.00;4.00;0.00
65360;PMS5003;51958;55.018;73.536;2023-08-07T03:57:44;3.00;2.00;0.00
65360;PMS5003;51958;55.018;73.536;2023-08-07T04:00:46;3.00;3.00;0.00
65360;PMS5003;51958;55.018;73.536;2023-08-07T04:03:47;5.00;4.00;0.00
65360;PMS5003;51958;55.018;73.536;2023-08-07T04:06:49;4.00;3.00;1.00
65360;PMS5003;51958;55.018;73.536;2023-08-07T04:09:50;3.25;3.25;1.00
65360;PMS5003;51958;55.018;73.536;2023-08-07T04:12:51;4.00;4.00;1.00
65360;PMS5003;51958;55.018;73.536;2023-08-07T04:15:52;5.75;5.00;3.00
65360;PMS5003;51958;55.018;73.536;2023-08-07T04:18:53;5.00;4.50;2.00
65360;PMS5003;51958;55.018;73.536;2023-08-07T04:21:54;4.00;4.00;1.00
65360;PMS5003;51958;55.018;73.536;2023-08-07T04:24:55;4.00;4.00;1.00
65360;PMS5003;51958;55.018;73.536;2023-08-07T04:27:56;4.25;4.25;3.00
65360;PMS5003;51958;55.018;73.536;2023-08-07T04:30:57;4.00;4.00;2.00
65360;PMS5003;51958;55.018;73.536;2023-08-07T04:33:59;9.50;8.25;3.50
65360;PMS5003;51958;55.018;73.536;2023-08-07T04:37:05;5.50;5.00;3.00
65360;PMS5003;51958;55.018;73.536;2023-08-07T04:40:07;5.50;4.50;3.00
65360;PMS5003;51958;55.018;73.536;2023-08-07T04:43:09;7.00;5.75;2.00
65360;PMS5003;51958;55.018;73.536;2023-08-07T04:46:10;5.25;5.25;2.00
65360;PMS5003;51958;55.018;73.536;2023-08-07T04:49:13;4.25;4.25;2.00
65360;PMS5003;51958;55.018;73.536;2023-08-07T04:52:14;6.75;6.00;4.00
65360;PMS5003;51958;55.018;73.536;2023-08-07T04:55:15;6.00;5.00;3.00
65360;PMS5003;51958;55.018;73.536;2023-08-07T04:58:16;6.00;5.00;4.00
65360;PMS5003;51958;55.018;73.536;2023-08-07T05:01:17;6.00;6.00;3.00
65360;PMS5003;51958;55.018;73.536;2023-08-07T05:04:19;5.75;5.75;2.00
65360;PMS5003;51958;55.018;73.536;2023-08-07T05:07:21;5.00;5.00;2.00
65360;PMS5003;51958;55.018;73.536;2023-08-07T05:10:22;7.00;5.25;2.50
65360;PMS5003;51958;55.018;73.536;2023-08-07T05:13:23;14.50;14.50;9.25
65360;PMS5003;51958;55.018;73.536;2023-08-07T05:16:24;13.00;11.75;6.25
65360;PMS5003;51958;55.018;73.536;2023-08-07T05:19:25;9.50;8.25;5.00
65360;PMS5003;51958;55.018;73.536;2023-08-07T05:22:26;8.00;8.00;6.00
65360;PMS5003;51958;55.018;73.536;2023-08-07T05:25:27;6.50;6.50;5.00
65360;PMS5003;51958;55.018;73.536;2023-08-07T05:28:28;5.00;4.67;3.00
65360;PMS5003;51958;55.018;73.536;2023-08-07T05:31:30;6.00;6.00;2.75
65360;PMS5003;51958;55.018;73.536;2023-08-07T05:34:31;6.75;6.00;2.25
65360;PMS5003;51958;55.018;73.536;2023-08-07T05:37:37;6.00;6.00;3.00
65360;PMS5003;51958;55.018;73.536;2023-08-07T05:40:38;6.00;6.00;2.00
65360;PMS5003;51958;55.018;73.536;2023-08-07T05:43:40;5.00;4.00;2.00
65360;PMS5003;51958;55.018;73.536;2023-08-07T05:46:41;7.00;7.00;2.00
65360;PMS5003;51958;55.018;73.536;2023-08-07T05:49:42;6.25;6.25;3.00
65360;PMS5003;51958;55.018;73.536;2023-08-07T05:52:43;7.25;6.50;3.00
65360;PMS5003;51958;55.018;73.536;2023-08-07T05:55:44;6.00;5.75;3.00
65360;PMS5003;51958;55.018;73.536;2023-08-07T05:58:45;5.25;4.25;2.00
65360;PMS5003;51958;55.018;73.536;2023-08-07T06:01:46;7.00;6.00;4.75
65360;PMS5003;51958;55.018;73.536;2023-08-07T06:04:47;5.25;5.00;3.00
65360;PMS5003;51958;55.018;73.536;2023-08-07T06:07:53;8.00;8.00;4.00
65360;PMS5003;51958;55.018;73.536;2023-08-07T06:10:54;7.00;7.00;3.00
65360;PMS5003;51958;55.018;73.536;2023-08-07T06:13:55;6.00;6.00;3.00
65360;PMS5003;51958;55.018;73.536;2023-08-07T06:16:56;7.00;6.75;4.00
65360;PMS5003;51958;55.018;73.536;2023-08-07T06:20:02;7.00;7.00;4.00
65360;PMS5003;51958;55.018;73.536;2023-08-07T06:23:05;7.00;7.00;3.25
65360;PMS5003;51958;55.018;73.536;2023-08-07T06:26:06;5.00;5.00;3.00
65360;PMS5003;51958;55.018;73.536;2023-08-07T06:29:09;6.00;6.00;4.00
65360;PMS5003;51958;55.018;73.536;2023-08-07T06:32:10;5.25;5.25;4.00
65360;PMS5003;51958;55.018;73.536;2023-08-07T06:35:11;6.00;6.00;3.00
65360;PMS5003;51958;55.018;73.536;2023-08-07T06:38:12;7.00;7.00;3.75
65360;PMS5003;51958;55.018;73.536;2023-08-07T06:41:13;4.00;4.00;3.00
65360;PMS5003;51958;55.018;73.536;2023-08-07T06:44:14;7.00;6.00;3.00
65360;PMS5003;51958;55.018;73.536;2023-08-07T06:47:15;5.00;5.00;2.00
65360;PMS5003;51958;55.018;73.536;2023-08-07T06:50:16;6.00;6.00;3.00
65360;PMS5003;51958;55.018;73.536;2023-08-07T06:53:18;3.75;3.75;2.00
65360;PMS5003;51958;55.018;73.536;2023-08-07T06:56:19;4.75;4.75;3.00
65360;PMS5003;51958;55.018;73.536;2023-08-07T06:59:21;5.00;5.00;2.00
65360;PMS5003;51958;55.018;73.536;2023-08-07T07:02:22;6.00;6.00;3.00
65360;PMS5003;51958;55.018;73.536;2023-08-07T07:05:23;5.50;5.00;2.00
65360;PMS5003;51958;55.018;73.536;2023-08-07T07:08:25;5.00;5.00;2.00
65360;PMS5003;51958;55.018;73.536;2023-08-07T07:11:26;6.00;6.00;3.00
65360;PMS5003;51958;55.018;73.536;2023-08-07T07:14:27;6.50;6.50;3.25
65360;PMS5003;51958;55.018;73.536;2023-08-07T07:17:28;6.00;6.00;2.75
65360;PMS5003;51958;55.018;73.536;2023-08-07T07:20:29;5.50;5.25;2.00
65360;PMS5003;51958;55.018;73.536;2023-08-07T07:23:30;7.00;6.25;2.00
65360;PMS5003;51958;55.018;73.536;2023-08-07T07:26:31;6.00;6.00;2.75
65360;PMS5003;51958;55.018;73.536;2023-08-07T07:29:32;5.00;5.00;2.00
65360;PMS5003;51958;55.018;73.536;2023-08-07T07:32:33;6.25;6.25;2.50
65360;PMS5003;51958;55.018;73.536;2023-08-07T07:35:38;6.00;6.00;3.00
65360;PMS5003;51958;55.018;73.536;2023-08-07T07:38:39;7.25;7.00;2.00
65360;PMS5003;51958;55.018;73.536;2023-08-07T07:41:40;7.00;7.00;4.00
65360;PMS5003;51958;55.018;73.536;2023-08-07T07:44:42;7.00;7.00;4.25
65360;PMS5003;51958;55.018;73.536;2023-08-07T07:47:43;8.25;8.00;4.00
65360;PMS5003;51958;55.018;73.536;2023-08-07T07:50:44;5.67;5.33;2.33
65360;PMS5003;51958;55.018;73.536;2023-08-07T07:53:45;5.50;5.50;2.00
65360;PMS5003;51958;55.018;73.536;2023-08-07T07:56:46;6.00;6.00;4.00
65360;PMS5003;51958;55.018;73.536;2023-08-07T07:59:47;7.00;7.00;4.00
65360;PMS5003;51958;55.018;73.536;2023-08-07T08:02:49;7.00;6.00;2.00
65360;PMS5003;51958;55.018;73.536;2023-08-07T08:05:51;8.00;6.00;3.00
65360;PMS5003;51958;55.018;73.536;2023-08-07T08:08:52;6.75;6.00;4.00
65360;PMS5003;51958;55.018;73.536;2023-08-07T08:11:53;6.00;6.00;3.00
65360;PMS5003;51958;55.018;73.536;2023-08-07T08:14:54;6.00;5.75;2.75
65360;PMS5003;51958;55.018;73.536;2023-08-07T08:17:55;6.00;6.00;3.00
65360;PMS5003;51958;55.018;73.536;2023-08-07T08:20:56;6.00;6.00;3.00
65360;PMS5003;51958;55.018;73.536;2023-08-07T08:23:59;8.00;7.00;4.00
65360;PMS5003;51958;55.018;73.536;2023-08-07T08:27:01;7.00;6.00;3.00
65360;PMS5003;51958;55.018;73.536;2023-08-07T08:30:02;8.00;8.00;4.00
65360;PMS5003;51958;55.018;73.536;2023-08-07T08:33:05;8.00;7.00;3.50
65360;PMS5003;51958;55.018;73.536;2023-08-07T08:36:06;8.00;7.50;3.00
65360;PMS5003;51958;55.018;73.536;2023-08-07T08:39:07;8.25;8.00;3.50
65360;PMS5003;51958;55.018;73.536;2023-08-07T08:42:11;6.75;6.75;3.50
65360;PMS5003;51958;55.018;73.536;2023-08-07T08:45:14;7.75;7.75;4.00
65360;PMS5003;51958;55.018;73.536;2023-08-07T08:48:17;6.00;6.00;3.00
65360;PMS5003;51958;55.018;73.536;2023-08-07T08:51:22;3.00;3.00;2.00
65360;PMS5003;51958;55.018;73.536;2023-08-07T08:54:25;6.00;6.00;3.00
65360;PMS5003;51958;55.018;73.536;2023-08-07T08:57:26;6.00;6.00;2.33
65360;PMS5003;51958;55.018;73.536;2023-08-07T09:00:27;7.75;7.75;3.00
65360;PMS5003;51958;55.018;73.536;2023-08-07T09:03:30;7.00;7.00;4.00
65360;PMS5003;51958;55.018;73.536;2023-08-07T09:06:31;6.00;4.00;2.00
65360;PMS5003;51958;55.018;73.536;2023-08-07T09:09:32;7.00;6.00;4.00
65360;PMS5003;51958;55.018;73.536;2023-08-07T09:12:35;5.00;5.00;3.00
65360;PMS5003;51958;55.018;73.536;2023-08-07T09:15:38;7.75;7.00;4.00
65360;PMS5003;51958;55.018;73.536;2023-08-07T09:18:40;6.00;6.00;3.00
65360;PMS5003;51958;55.018;73.536;2023-08-07T09:21:42;8.00;8.00;4.00
65360;PMS5003;51958;55.018;73.536;2023-08-07T09:24:43;11.50;10.25;3.75
65360;PMS5003;51958;55.018;73.536;2023-08-07T09:27:44;13.00;9.25;5.00
65360;PMS5003;51958;55.018;73.536;2023-08-07T09:30:45;12.67;10.67;5.67
65360;PMS5003;51958;55.018;73.536;2023-08-07T09:33:47;8.00;8.00;4.00
65360;PMS5003;51958;55.018;73.536;2023-08-07T09:36:48;6.00;6.00;4.00
65360;PMS5003;51958;55.018;73.536;2023-08-07T09:39:49;6.00;6.00;4.00
65360;PMS5003;51958;55.018;73.536;2023-08-07T09:42:53;7.00;6.00;4.00
65360;PMS5003;51958;55.018;73.536;2023-08-07T09:46:04;6.00;6.00;3.00
65360;PMS5003;51958;55.018;73.536;2023-08-07T09:49:05;7.00;7.00;4.00
65360;PMS5003;51958;55.018;73.536;2023-08-07T09:52:07;4.00;4.00;2.00
65360;PMS5003;51958;55.018;73.536;2023-08-07T09:55:08;6.50;6.25;3.25
65360;PMS5003;51958;55.018;73.536;2023-08-07T09:58:11;5.50;5.50;3.00
65360;PMS5003;51958;55.018;73.536;2023-08-07T10:01:13;6.00;5.25;3.00
65360;PMS5003;51958;55.018;73.536;2023-08-07T10:04:16;15.00;15.00;9.50
65360;PMS5003;51958;55.018;73.536;2023-08-07T10:07:17;19.50;19.25;11.25
65360;PMS5003;51958;55.018;73.536;2023-08-07T10:10:19;22.20;21.00;14.00
65360;PMS5003;51958;55.018;73.536;2023-08-07T10:13:20;44.75;36.25;23.25
65360;PMS5003;51958;55.018;73.536;2023-08-07T10:16:22;25.75;24.50;13.50
65360;PMS5003;51958;55.018;73.536;2023-08-07T10:19:23;15.25;15.25;5.00
65360;PMS5003;51958;55.018;73.536;2023-08-07T10:22:25;8.50;8.50;4.25
65360;PMS5003;51958;55.018;73.536;2023-08-07T10:25:26;8.00;8.00;4.00
65360;PMS5003;51958;55.018;73.536;2023-08-07T10:28:28;5.00;5.00;3.00
65360;PMS5003;51958;55.018;73.536;2023-08-07T10:31:29;6.00;5.00;2.00
65360;PMS5003;51958;55.018;73.536;2023-08-07T10:34:35;7.00;6.00;2.00
65360;PMS5003;51958;55.018;73.536;2023-08-07T10:37:42;5.25;5.00;4.00
65360;PMS5003;51958;55.018;73.536;2023-08-07T10:44:03;5.00;5.00;3.25
65360;PMS5003;51958;55.018;73.536;2023-08-07T10:47:05;5.00;4.00;2.25
65360;PMS5003;51958;55.018;73.536;2023-08-07T10:50:06;6.25;5.00;3.00
65360;PMS5003;51958;55.018;73.536;2023-08-07T10:53:07;6.00;6.00;3.00
65360;PMS5003;51958;55.018;73.536;2023-08-07T10:56:09;6.00;5.00;2.00
65360;PMS5003;51958;55.018;73.536;2023-08-07T10:59:11;8.75;8.75;4.00
65360;PMS5003;51958;55.018;73.536;2023-08-07T11:02:22;8.00;8.00;3.75
65360;PMS5003;51958;55.018;73.536;2023-08-07T11:05:23;6.00;6.00;3.00
65360;PMS5003;51958;55.018;73.536;2023-08-07T11:08:26;7.00;7.00;2.50
65360;PMS5003;51958;55.018;73.536;2023-08-07T11:11:27;6.00;5.00;2.25
65360;PMS5003;51958;55.018;73.536;2023-08-07T11:14:28;6.00;6.00;2.00
65360;PMS5003;51958;55.018;73.536;2023-08-07T11:17:29;6.00;6.00;3.00
65360;PMS5003;51958;55.018;73.536;2023-08-07T11:20:31;6.00;6.00;4.00
65360;PMS5003;51958;55.018;73.536;2023-08-07T11:23:32;6.33;6.33;3.00
65360;PMS5003;51958;55.018;73.536;2023-08-07T11:26:33;6.00;6.00;2.00
65360;PMS5003;51958;55.018;73.536;2023-08-07T11:29:34;6.00;6.00;3.00
65360;PMS5003;51958;55.018;73.536;2023-08-07T11:32:35;6.00;5.67;3.00
65360;PMS5003;51958;55.018;73.536;2023-08-07T11:35:40;5.00;5.00;2.00
65360;PMS5003;51958;55.018;73.536;2023-08-07T11:38:41;4.50;4.00;2.00
65360;PMS5003;51958;55.018;73.536;2023-08-07T11:41:46;4.00;4.00;1.00
65360;PMS5003;51958;55.018;73.536;2023-08-07T11:44:47;5.00;5.00;2.00
65360;PMS5003;51958;55.018;73.536;2023-08-07T11:47:48;4.75;4.00;2.25
65360;PMS5003;51958;55.018;73.536;2023-08-07T11:50:50;6.00;5.00;2.75
65360;PMS5003;51958;55.018;73.536;2023-08-07T11:53:51;5.00;5.00;3.00
65360;PMS5003;51958;55.018;73.536;2023-08-07T11:56:57;6.00;6.00;3.50
65360;PMS5003;51958;55.018;73.536;2023-08-07T11:59:58;6.00;6.00;2.25
65360;PMS5003;51958;55.018;73.536;2023-08-07T12:02:59;5.00;4.00;2.00
65360;PMS5003;51958;55.018;73.536;2023-08-07T12:06:03;5.00;4.00;3.00
65360;PMS5003;51958;55.018;73.536;2023-08-07T12:09:04;4.00;4.00;3.00
65360;PMS5003;51958;55.018;73.536;2023-08-07T12:12:07;5.00;5.00;2.00
65360;PMS5003;51958;55.018;73.536;2023-08-07T12:15:09;5.25;5.25;3.00
65360;PMS5003;51958;55.018;73.536;2023-08-07T12:18:10;6.00;5.75;3.00
65360;PMS5003;51958;55.018;73.536;2023-08-07T12:21:16;6.00;5.00;2.00
65360;PMS5003;51958;55.018;73.536;2023-08-07T12:24:17;6.00;6.00;2.00
65360;PMS5003;51958;55.018;73.536;2023-08-07T12:27:19;6.00;5.00;2.00
65360;PMS5003;51958;55.018;73.536;2023-08-07T12:30:20;7.00;6.50;1.00
65360;PMS5003;51958;55.018;73.536;2023-08-07T12:33:21;7.67;6.00;3.00
65360;PMS5003;51958;55.018;73.536;2023-08-07T12:36:22;6.00;6.00;3.00
65360;PMS5003;51958;55.018;73.536;2023-08-07T12:39:23;7.00;6.25;3.00
65360;PMS5003;51958;55.018;73.536;2023-08-07T12:42:24;7.00;4.67;3.00
65360;PMS5003;51958;55.018;73.536;2023-08-07T12:45:25;6.50;6.00;3.00
65360;PMS5003;51958;55.018;73.536;2023-08-07T12:48:27;21.00;18.75;11.00
65360;PMS5003;51958;55.018;73.536;2023-08-07T12:51:29;16.75;14.50;5.25
65360;PMS5003;51958;55.018;73.536;2023-08-07T12:54:30;9.00;8.00;3.00
65360;PMS5003;51958;55.018;73.536;2023-08-07T12:57:31;8.00;6.00;2.00
65360;PMS5003;51958;55.018;73.536;2023-08-07T13:00:32;7.00;5.00;3.00
65360;PMS5003;51958;55.018;73.536;2023-08-07T13:03:33;7.00;6.25;2.00
65360;PMS5003;51958;55.018;73.536;2023-08-07T13:06:34;7.00;6.50;1.00
65360;PMS5003;51958;55.018;73.536;2023-08-07T13:09:35;6.00;6.00;2.00
65360;PMS5003;51958;55.018;73.536;2023-08-07T13:12:37;6.00;6.00;3.67
65360;PMS5003;51958;55.018;73.536;2023-08-07T13:15:39;6.00;6.00;3.00
65360;PMS5003;51958;55.018;73.536;2023-08-07T13:18:40;10.25;9.00;4.75
65360;PMS5003;51958;55.018;73.536;2023-08-07T13:21:41;8.00;7.25;3.00
65360;PMS5003;51958;55.018;73.536;2023-08-07T13:24:42;6.00;6.00;4.00
65360;PMS5003;51958;55.018;73.536;2023-08-07T13:27:43;5.75;5.75;3.00
65360;PMS5003;51958;55.018;73.536;2023-08-07T13:30:44;9.00;8.00;5.25
65360;PMS5003;51958;55.018;73.536;2023-08-07T13:33:46;8.50;8.50;5.00
65360;PMS5003;51958;55.018;73.536;2023-08-07T13:36:47;9.00;7.50;4.00
65360;PMS5003;51958;55.018;73.536;2023-08-07T13:39:48;9.00;9.00;5.00
65360;PMS5003;51958;55.018;73.536;2023-08-07T13:42:51;11.00;11.00;7.00
65360;PMS5003;51958;55.018;73.536;2023-08-07T13:45:54;10.75;10.75;5.75
65360;PMS5003;51958;55.018;73.536;2023-08-07T13:48:55;8.25;8.00;5.00
65360;PMS5003;51958;55.018;73.536;2023-08-07T13:51:56;8.00;8.00;5.00
65360;PMS5003;51958;55.018;73.536;2023-08-07T13:54:57;9.00;8.50;5.00
65360;PMS5003;51958;55.018;73.536;2023-08-07T13:57:58;19.50;16.75;11.00
65360;PMS5003;51958;55.018;73.536;2023-08-07T14:00:59;17.25;16.75;7.75
65360;PMS5003;51958;55.018;73.536;2023-08-07T14:04:01;14.00;14.00;6.00
65360;PMS5003;51958;55.018;73.536;2023-08-07T14:07:02;12.00;12.00;6.00
65360;PMS5003;51958;55.018;73.536;2023-08-07T14:10:04;13.00;12.00;5.25
65360;PMS5003;51958;55.018;73.536;2023-08-07T14:13:06;15.75;15.00;10.25
65360;PMS5003;51958;55.018;73.536;2023-08-07T14:16:07;45.00;36.50;22.00
65360;PMS5003;51958;55.018;73.536;2023-08-07T14:19:09;60.25;47.00;29.75
65360;PMS5003;51958;55.018;73.536;2023-08-07T14:22:10;60.75;48.00;31.00
65360;PMS5003;51958;55.018;73.536;2023-08-07T14:25:11;56.00;45.00;28.00
65360;PMS5003;51958;55.018;73.536;2023-08-07T14:28:13;46.25;37.50;24.50
65360;PMS5003;51958;55.018;73.536;2023-08-07T14:31:14;35.50;31.00;20.25
65360;PMS5003;51958;55.018;73.536;2023-08-07T14:34:15;24.33;23.33;18.00
65360;PMS5003;51958;55.018;73.536;2023-08-07T14:37:16;20.00;20.00;15.75
65360;PMS5003;51958;55.018;73.536;2023-08-07T14:40:17;19.00;19.00;13.00
65360;PMS5003;51958;55.018;73.536;2023-08-07T14:43:18;18.00;18.00;9.00
65360;PMS5003;51958;55.018;73.536;2023-08-07T14:46:19;18.25;17.00;8.25
65360;PMS5003;51958;55.018;73.536;2023-08-07T14:49:21;19.50;18.25;8.50
65360;PMS5003;51958;55.018;73.536;2023-08-07T14:52:22;19.75;17.75;7.50
65360;PMS5003;51958;55.018;73.536;2023-08-07T14:55:23;19.00;17.00;9.00
65360;PMS5003;51958;55.018;73.536;2023-08-07T14:58:24;19.25;17.00;8.00
65360;PMS5003;51958;55.018;73.536;2023-08-07T15:01:25;18.75;17.00;8.75
65360;PMS5003;51958;55.018;73.536;2023-08-07T15:04:26;18.00;17.00;9.00
65360;PMS5003;51958;55.018;73.536;2023-08-07T15:07:27;18.50;17.50;9.00
65360;PMS5003;51958;55.018;73.536;2023-08-07T15:10:28;17.00;17.00;8.00
65360;PMS5003;51958;55.018;73.536;2023-08-07T15:13:29;18.67;17.67;10.00
65360;PMS5003;51958;55.018;73.536;2023-08-07T15:16:31;21.00;19.50;11.00
65360;PMS5003;51958;55.018;73.536;2023-08-07T15:19:32;22.00;21.75;11.00
65360;PMS5003;51958;55.018;73.536;2023-08-07T15:22:34;23.00;21.00;12.00
65360;PMS5003;51958;55.018;73.536;2023-08-07T15:25:36;26.00;25.00;15.00
65360;PMS5003;51958;55.018;73.536;2023-08-07T15:28:37;42.50;35.75;22.75
65360;PMS5003;51958;55.018;73.536;2023-08-07T15:31:40;51.00;42.00;26.25
65360;PMS5003;51958;55.018;73.536;2023-08-07T15:34:41;55.67;44.33;28.00
65360;PMS5003;51958;55.018;73.536;2023-08-07T15:37:42;56.00;45.00;29.00
65360;PMS5003;51958;55.018;73.536;2023-08-07T15:40:43;50.75;41.00;27.00
65360;PMS5003;51958;55.018;73.536;2023-08-07T15:43:44;48.00;39.00;24.00
65360;PMS5003;51958;55.018;73.536;2023-08-07T15:46:45;48.00;37.50;23.00
65360;PMS5003;51958;55.018;73.536;2023-08-07T15:49:46;47.50;38.00;23.00
65360;PMS5003;51958;55.018;73.536;2023-08-07T15:52:49;55.50;44.25;28.50
65360;PMS5003;51958;55.018;73.536;2023-08-07T15:55:50;69.33;55.33;36.67
65360;PMS5003;51958;55.018;73.536;2023-08-07T15:58:51;84.25;76.50;47.25
65360;PMS5003;51958;55.018;73.536;2023-08-07T16:01:52;95.50;87.75;54.50
65360;PMS5003;51958;55.018;73.536;2023-08-07T16:04:53;101.33;92.33;57.00
65360;PMS5003;51958;55.018;73.536;2023-08-07T16:07:54;102.00;92.00;57.00
65360;PMS5003;51958;55.018;73.536;2023-08-07T16:10:56;94.50;86.25;54.00
65360;PMS5003;51958;55.018;73.536;2023-08-07T16:13:57;100.33;92.33;56.67
65360;PMS5003;51958;55.018;73.536;2023-08-07T16:16:58;107.50;97.25;62.25
65360;PMS5003;51958;55.018;73.536;2023-08-07T16:19:59;110.50;99.25;63.00
65360;PMS5003;51958;55.018;73.536;2023-08-07T16:23:00;112.25;100.00;61.50
65360;PMS5003;51958;55.018;73.536;2023-08-07T16:26:01;114.00;102.00;63.33
65360;PMS5003;51958;55.018;73.536;2023-08-07T16:29:02;131.00;117.25;74.25
65360;PMS5003;51958;55.018;73.536;2023-08-07T16:32:03;119.75;108.25;69.00
65360;PMS5003;51958;55.018;73.536;2023-08-07T16:35:07;116.50;106.75;65.00
65360;PMS5003;51958;55.018;73.536;2023-08-07T16:38:08;119.50;109.00;68.25
65360;PMS5003;51958;55.018;73.536;2023-08-07T16:41:09;118.50;108.00;67.25
65360;PMS5003;51958;55.018;73.536;2023-08-07T16:44:10;107.67;96.00;62.67
65360;PMS5003;51958;55.018;73.536;2023-08-07T16:47:11;106.50;94.00;59.25
65360;PMS5003;51958;55.018;73.536;2023-08-07T16:50:12;98.50;89.00;57.00
65360;PMS5003;51958;55.018;73.536;2023-08-07T16:54:06;76.75;67.25;41.25
65360;PMS5003;51958;55.018;73.536;2023-08-07T16:57:08;84.75;78.00;49.50
65360;PMS5003;51958;55.018;73.536;2023-08-07T17:00:09;97.50;87.75;56.00
65360;PMS5003;51958;55.018;73.536;2023-08-07T17:03:11;97.00;87.00;57.00
65360;PMS5003;51958;55.018;73.536;2023-08-07T17:06:12;94.50;85.75;55.00
65360;PMS5003;51958;55.018;73.536;2023-08-07T17:09:13;93.50;86.25;56.00
65360;PMS5003;51958;55.018;73.536;2023-08-07T17:12:14;96.00;89.00;58.00
65360;PMS5003;51958;55.018;73.536;2023-08-07T17:15:15;105.75;94.50;60.75
65360;PMS5003;51958;55.018;73.536;2023-08-07T17:18:16;117.75;104.75;67.75
65360;PMS5003;51958;55.018;73.536;2023-08-07T17:21:20;119.50;106.00;68.00
65360;PMS5003;51958;55.018;73.536;2023-08-07T17:24:22;110.00;99.50;62.75
65360;PMS5003;51958;55.018;73.536;2023-08-07T17:27:23;108.00;98.00;63.25